sensor_id;sensor_type;location;lat;lon;timestamp;P1;durP1;ratioP1;P2;durP2;ratioP2
37559;SDS011;23398;50.928;7.084;2023-02-23T00:01:30;18.50;;;15.85;;
37559;SDS011;23398;50.928;7.084;2023-02-23T00:03:56;18.52;;;14.98;;
37559;SDS011;23398;50.928;7.084;2023-02-23T00:06:23;18.73;;;15.27;;
37559;SDS011;23398;50.928;7.084;2023-02-23T00:08:51;18.67;;;15.45;;
37559;SDS011;23398;50.928;7.084;2023-02-23T00:11:18;18.95;;;15.48;;
37559;SDS011;23398;50.928;7.084;2023-02-23T00:13:45;17.02;;;14.18;;
37559;SDS011;23398;50.928;7.084;2023-02-23T00:16:18;17.45;;;14.40;;
37559;SDS011;23398;50.928;7.084;2023-02-23T00:18:49;17.55;;;14.07;;
37559;SDS011;23398;50.928;7.084;2023-02-23T00:21:24;17.27;;;14.57;;
37559;SDS011;23398;50.928;7.084;2023-02-23T00:23:54;16.48;;;14.45;;
37559;SDS011;23398;50.928;7.084;2023-02-23T00:26:23;18.60;;;15.80;;
37559;SDS011;23398;50.928;7.084;2023-02-23T00:28:53;17.65;;;15.20;;
37559;SDS011;23398;50.928;7.084;2023-02-23T00:31:19;18.58;;;14.80;;
37559;SDS011;23398;50.928;7.084;2023-02-23T00:33:50;19.55;;;15.48;;
37559;SDS011;23398;50.928;7.084;2023-02-23T00:36:22;18.00;;;14.43;;
37559;SDS011;23398;50.928;7.084;2023-02-23T00:38:53;20.88;;;16.52;;
37559;SDS011;23398;50.928;7.084;2023-02-23T00:41:20;18.63;;;15.63;;
37559;SDS011;23398;50.928;7.084;2023-02-23T00:43:48;18.98;;;15.70;;
37559;SDS011;23398;50.928;7.084;2023-02-23T00:46:14;17.67;;;14.88;;
37559;SDS011;23398;50.928;7.084;2023-02-23T00:48:47;17.35;;;15.02;;
37559;SDS011;23398;50.928;7.084;2023-02-23T00:51:14;16.52;;;12.32;;
37559;SDS011;23398;50.928;7.084;2023-02-23T00:53:41;15.32;;;13.15;;
37559;SDS011;23398;50.928;7.084;2023-02-23T00:56:08;14.88;;;12.65;;
37559;SDS011;23398;50.928;7.084;2023-02-23T00:58:36;16.98;;;13.93;;
37559;SDS011;23398;50.928;7.084;2023-02-23T01:01:04;19.30;;;14.73;;
37559;SDS011;23398;50.928;7.084;2023-02-23T01:03:31;15.60;;;13.73;;
37559;SDS011;23398;50.928;7.084;2023-02-23T01:06:00;17.08;;;14.20;;
37559;SDS011;23398;50.928;7.084;2023-02-23T01:08:29;15.57;;;13.90;;
37559;SDS011;23398;50.928;7.084;2023-02-23T01:10:59;15.73;;;13.18;;
37559;SDS011;23398;50.928;7.084;2023-02-23T01:13:30;14.82;;;12.45;;
37559;SDS011;23398;50.928;7.084;2023-02-23T01:15:56;15.20;;;12.93;;
37559;SDS011;23398;50.928;7.084;2023-02-23T01:18:22;16.42;;;14.27;;
37559;SDS011;23398;50.928;7.084;2023-02-23T01:20:48;17.52;;;14.10;;
37559;SDS011;23398;50.928;7.084;2023-02-23T01:23:14;15.77;;;13.45;;
37559;SDS011;23398;50.928;7.084;2023-02-23T01:25:41;15.55;;;13.35;;
37559;SDS011;23398;50.928;7.084;2023-02-23T01:28:08;14.68;;;12.65;;
37559;SDS011;23398;50.928;7.084;2023-02-23T01:30:34;16.13;;;13.15;;
37559;SDS011;23398;50.928;7.084;2023-02-23T01:33:00;14.63;;;12.35;;
37559;SDS011;23398;50.928;7.084;2023-02-23T01:35:26;16.50;;;13.20;;
37559;SDS011;23398;50.928;7.084;2023-02-23T01:37:54;18.00;;;14.20;;
37559;SDS011;23398;50.928;7.084;2023-02-23T01:40:20;16.55;;;14.10;;
37559;SDS011;23398;50.928;7.084;2023-02-23T01:42:54;15.88;;;13.52;;
37559;SDS011;23398;50.928;7.084;2023-02-23T01:45:30;17.80;;;13.80;;
37559;SDS011;23398;50.928;7.084;2023-02-23T01:48:23;17.00;;;14.02;;
37559;SDS011;23398;50.928;7.084;2023-02-23T01:53:26;17.35;;;14.32;;
37559;SDS011;23398;50.928;7.084;2023-02-23T01:55:58;15.38;;;13.75;;
37559;SDS011;23398;50.928;7.084;2023-02-23T01:58:28;14.73;;;12.88;;
37559;SDS011;23398;50.928;7.084;2023-02-23T02:00:57;15.05;;;13.45;;
37559;SDS011;23398;50.928;7.084;2023-02-23T02:03:29;15.82;;;13.50;;
37559;SDS011;23398;50.928;7.084;2023-02-23T02:06:00;16.92;;;14.43;;
37559;SDS011;23398;50.928;7.084;2023-02-23T02:08:31;16.60;;;14.30;;
37559;SDS011;23398;50.928;7.084;2023-02-23T02:10:59;18.33;;;14.95;;
37559;SDS011;23398;50.928;7.084;2023-02-23T02:13:32;16.42;;;13.50;;
37559;SDS011;23398;50.928;7.084;2023-02-23T02:19:10;13.43;;;12.00;;
37559;SDS011;23398;50.928;7.084;2023-02-23T02:39:10;16.25;;;14.18;;
37559;SDS011;23398;50.928;7.084;2023-02-23T02:47:26;20.25;;;15.38;;
37559;SDS011;23398;50.928;7.084;2023-02-23T02:52:38;17.40;;;15.48;;
37559;SDS011;23398;50.928;7.084;2023-02-23T02:57:40;19.42;;;16.60;;
37559;SDS011;23398;50.928;7.084;2023-02-23T03:00:07;21.23;;;17.90;;
37559;SDS011;23398;50.928;7.084;2023-02-23T03:02:55;20.23;;;16.20;;
37559;SDS011;23398;50.928;7.084;2023-02-23T03:05:41;21.95;;;17.58;;
37559;SDS011;23398;50.928;7.084;2023-02-23T03:11:24;21.45;;;17.48;;
37559;SDS011;23398;50.928;7.084;2023-02-23T03:14:23;21.92;;;18.08;;
37559;SDS011;23398;50.928;7.084;2023-02-23T03:17:33;23.25;;;18.70;;
37559;SDS011;23398;50.928;7.084;2023-02-23T03:23:21;21.02;;;17.83;;
37559;SDS011;23398;50.928;7.084;2023-02-23T03:32:29;20.27;;;16.65;;
37559;SDS011;23398;50.928;7.084;2023-02-23T03:35:22;21.70;;;18.30;;
37559;SDS011;23398;50.928;7.084;2023-02-23T03:38:25;23.85;;;19.00;;
37559;SDS011;23398;50.928;7.084;2023-02-23T03:41:12;24.42;;;19.63;;
37559;SDS011;23398;50.928;7.084;2023-02-23T03:44:05;22.33;;;18.45;;
37559;SDS011;23398;50.928;7.084;2023-02-23T03:46:55;24.15;;;19.63;;
37559;SDS011;23398;50.928;7.084;2023-02-23T03:49:41;26.85;;;20.55;;
37559;SDS011;23398;50.928;7.084;2023-02-23T03:52:28;23.85;;;19.10;;
37559;SDS011;23398;50.928;7.084;2023-02-23T03:55:18;24.00;;;18.75;;
37559;SDS011;23398;50.928;7.084;2023-02-23T03:58:10;23.73;;;18.55;;
37559;SDS011;23398;50.928;7.084;2023-02-23T04:00:57;23.02;;;17.75;;
37559;SDS011;23398;50.928;7.084;2023-02-23T04:03:46;21.05;;;16.75;;
37559;SDS011;23398;50.928;7.084;2023-02-23T04:06:34;22.20;;;18.60;;
37559;SDS011;23398;50.928;7.084;2023-02-23T04:09:22;23.95;;;19.67;;
37559;SDS011;23398;50.928;7.084;2023-02-23T04:12:20;24.10;;;19.30;;
37559;SDS011;23398;50.928;7.084;2023-02-23T04:17:56;22.98;;;19.13;;
37559;SDS011;23398;50.928;7.084;2023-02-23T04:20:22;24.20;;;20.20;;
37559;SDS011;23398;50.928;7.084;2023-02-23T04:22:49;26.50;;;20.60;;
37559;SDS011;23398;50.928;7.084;2023-02-23T04:25:15;26.58;;;21.58;;
37559;SDS011;23398;50.928;7.084;2023-02-23T04:27:43;26.60;;;21.65;;
37559;SDS011;23398;50.928;7.084;2023-02-23T04:30:08;28.83;;;22.00;;
37559;SDS011;23398;50.928;7.084;2023-02-23T04:32:35;27.00;;;21.92;;
37559;SDS011;23398;50.928;7.084;2023-02-23T04:35:01;28.25;;;22.33;;
37559;SDS011;23398;50.928;7.084;2023-02-23T04:37:27;27.05;;;21.73;;
37559;SDS011;23398;50.928;7.084;2023-02-23T04:39:53;24.63;;;20.50;;
37559;SDS011;23398;50.928;7.084;2023-02-23T04:42:19;27.95;;;22.13;;
37559;SDS011;23398;50.928;7.084;2023-02-23T04:44:44;28.33;;;22.67;;
37559;SDS011;23398;50.928;7.084;2023-02-23T04:47:10;28.63;;;23.42;;
37559;SDS011;23398;50.928;7.084;2023-02-23T04:49:38;27.50;;;22.65;;
37559;SDS011;23398;50.928;7.084;2023-02-23T04:52:03;31.88;;;22.42;;
37559;SDS011;23398;50.928;7.084;2023-02-23T04:54:29;29.05;;;22.30;;
37559;SDS011;23398;50.928;7.084;2023-02-23T04:56:55;29.80;;;22.52;;
37559;SDS011;23398;50.928;7.084;2023-02-23T04:59:20;27.55;;;22.67;;
37559;SDS011;23398;50.928;7.084;2023-02-23T05:01:46;28.00;;;23.20;;
37559;SDS011;23398;50.928;7.084;2023-02-23T05:04:12;28.95;;;22.73;;
37559;SDS011;23398;50.928;7.084;2023-02-23T05:06:37;29.83;;;23.13;;
37559;SDS011;23398;50.928;7.084;2023-02-23T05:09:03;27.83;;;22.20;;
37559;SDS011;23398;50.928;7.084;2023-02-23T05:11:30;29.83;;;23.75;;
37559;SDS011;23398;50.928;7.084;2023-02-23T05:13:56;29.75;;;24.08;;
37559;SDS011;23398;50.928;7.084;2023-02-23T05:16:22;30.90;;;24.02;;
37559;SDS011;23398;50.928;7.084;2023-02-23T05:18:48;32.58;;;24.75;;
37559;SDS011;23398;50.928;7.084;2023-02-23T05:21:13;36.08;;;25.40;;
37559;SDS011;23398;50.928;7.084;2023-02-23T05:23:39;35.65;;;27.35;;
37559;SDS011;23398;50.928;7.084;2023-02-23T05:26:06;30.35;;;24.77;;
37559;SDS011;23398;50.928;7.084;2023-02-23T05:28:35;28.20;;;22.65;;
37559;SDS011;23398;50.928;7.084;2023-02-23T05:31:02;26.75;;;22.23;;
37559;SDS011;23398;50.928;7.084;2023-02-23T05:33:28;26.38;;;21.88;;
37559;SDS011;23398;50.928;7.084;2023-02-23T05:35:55;26.25;;;21.90;;
37559;SDS011;23398;50.928;7.084;2023-02-23T05:38:21;28.52;;;22.35;;
37559;SDS011;23398;50.928;7.084;2023-02-23T05:40:47;30.65;;;23.95;;
37559;SDS011;23398;50.928;7.084;2023-02-23T05:43:12;26.30;;;22.75;;
37559;SDS011;23398;50.928;7.084;2023-02-23T05:45:39;24.73;;;21.30;;
37559;SDS011;23398;50.928;7.084;2023-02-23T05:48:05;26.75;;;21.75;;
37559;SDS011;23398;50.928;7.084;2023-02-23T05:50:32;23.60;;;20.02;;
37559;SDS011;23398;50.928;7.084;2023-02-23T05:52:57;24.38;;;20.70;;
37559;SDS011;23398;50.928;7.084;2023-02-23T05:55:23;23.98;;;19.17;;
37559;SDS011;23398;50.928;7.084;2023-02-23T05:57:49;23.10;;;19.40;;
37559;SDS011;23398;50.928;7.084;2023-02-23T06:00:15;24.77;;;19.27;;
37559;SDS011;23398;50.928;7.084;2023-02-23T06:02:42;22.10;;;19.25;;
37559;SDS011;23398;50.928;7.084;2023-02-23T06:05:08;24.85;;;19.92;;
37559;SDS011;23398;50.928;7.084;2023-02-23T06:07:35;24.17;;;19.08;;
37559;SDS011;23398;50.928;7.084;2023-02-23T06:10:01;25.38;;;20.38;;
37559;SDS011;23398;50.928;7.084;2023-02-23T06:12:27;26.35;;;20.40;;
37559;SDS011;23398;50.928;7.084;2023-02-23T06:14:54;26.67;;;21.60;;
37559;SDS011;23398;50.928;7.084;2023-02-23T06:17:21;28.85;;;20.95;;
37559;SDS011;23398;50.928;7.084;2023-02-23T06:19:46;27.73;;;20.77;;
37559;SDS011;23398;50.928;7.084;2023-02-23T06:22:12;27.70;;;21.35;;
37559;SDS011;23398;50.928;7.084;2023-02-23T06:24:38;30.15;;;22.17;;
37559;SDS011;23398;50.928;7.084;2023-02-23T06:27:03;30.98;;;22.83;;
37559;SDS011;23398;50.928;7.084;2023-02-23T06:29:29;27.90;;;21.13;;
37559;SDS011;23398;50.928;7.084;2023-02-23T06:31:54;29.85;;;22.40;;
37559;SDS011;23398;50.928;7.084;2023-02-23T06:34:20;28.48;;;21.60;;
37559;SDS011;23398;50.928;7.084;2023-02-23T06:36:46;32.95;;;22.10;;
37559;SDS011;23398;50.928;7.084;2023-02-23T06:39:11;30.63;;;22.67;;
37559;SDS011;23398;50.928;7.084;2023-02-23T06:41:37;29.48;;;21.58;;
37559;SDS011;23398;50.928;7.084;2023-02-23T06:44:02;28.60;;;21.08;;
37559;SDS011;23398;50.928;7.084;2023-02-23T06:46:28;29.50;;;22.10;;
37559;SDS011;23398;50.928;7.084;2023-02-23T06:48:54;29.73;;;22.00;;
37559;SDS011;23398;50.928;7.084;2023-02-23T06:51:20;29.55;;;22.15;;
37559;SDS011;23398;50.928;7.084;2023-02-23T06:53:46;30.75;;;21.92;;
37559;SDS011;23398;50.928;7.084;2023-02-23T06:56:12;29.65;;;21.83;;
37559;SDS011;23398;50.928;7.084;2023-02-23T06:58:38;29.88;;;22.20;;
37559;SDS011;23398;50.928;7.084;2023-02-23T07:01:07;32.95;;;23.17;;
37559;SDS011;23398;50.928;7.084;2023-02-23T07:03:34;29.38;;;22.05;;
37559;SDS011;23398;50.928;7.084;2023-02-23T07:05:59;29.95;;;22.73;;
37559;SDS011;23398;50.928;7.084;2023-02-23T07:08:25;28.20;;;21.20;;
37559;SDS011;23398;50.928;7.084;2023-02-23T07:10:51;28.48;;;21.80;;
37559;SDS011;23398;50.928;7.084;2023-02-23T07:13:16;31.02;;;22.67;;
37559;SDS011;23398;50.928;7.084;2023-02-23T07:15:44;29.60;;;21.65;;
37559;SDS011;23398;50.928;7.084;2023-02-23T07:18:09;29.08;;;22.17;;
37559;SDS011;23398;50.928;7.084;2023-02-23T07:20:35;31.15;;;22.40;;
37559;SDS011;23398;50.928;7.084;2023-02-23T07:23:00;28.77;;;21.25;;
37559;SDS011;23398;50.928;7.084;2023-02-23T07:25:26;31.48;;;22.35;;
37559;SDS011;23398;50.928;7.084;2023-02-23T07:27:52;27.60;;;21.55;;
37559;SDS011;23398;50.928;7.084;2023-02-23T07:30:19;31.17;;;22.02;;
37559;SDS011;23398;50.928;7.084;2023-02-23T07:32:48;26.52;;;20.88;;
37559;SDS011;23398;50.928;7.084;2023-02-23T07:35:15;30.35;;;21.63;;
37559;SDS011;23398;50.928;7.084;2023-02-23T07:37:40;30.25;;;21.70;;
37559;SDS011;23398;50.928;7.084;2023-02-23T07:40:06;28.35;;;20.85;;
37559;SDS011;23398;50.928;7.084;2023-02-23T07:42:33;28.48;;;20.27;;
37559;SDS011;23398;50.928;7.084;2023-02-23T07:44:58;30.05;;;21.10;;
37559;SDS011;23398;50.928;7.084;2023-02-23T07:47:24;30.35;;;22.30;;
37559;SDS011;23398;50.928;7.084;2023-02-23T07:49:58;30.77;;;22.45;;
37559;SDS011;23398;50.928;7.084;2023-02-23T07:52:24;30.92;;;21.98;;
37559;SDS011;23398;50.928;7.084;2023-02-23T07:54:50;30.65;;;21.83;;
37559;SDS011;23398;50.928;7.084;2023-02-23T07:57:16;30.40;;;22.38;;
37559;SDS011;23398;50.928;7.084;2023-02-23T07:59:42;28.88;;;22.08;;
37559;SDS011;23398;50.928;7.084;2023-02-23T08:02:09;31.75;;;22.42;;
37559;SDS011;23398;50.928;7.084;2023-02-23T08:04:36;31.00;;;22.33;;
37559;SDS011;23398;50.928;7.084;2023-02-23T08:07:02;28.52;;;21.60;;
37559;SDS011;23398;50.928;7.084;2023-02-23T08:09:27;30.92;;;23.38;;
37559;SDS011;23398;50.928;7.084;2023-02-23T08:11:56;29.42;;;22.42;;
37559;SDS011;23398;50.928;7.084;2023-02-23T08:14:22;27.73;;;21.73;;
37559;SDS011;23398;50.928;7.084;2023-02-23T08:16:48;29.42;;;22.45;;
37559;SDS011;23398;50.928;7.084;2023-02-23T08:19:14;31.85;;;22.70;;
37559;SDS011;23398;50.928;7.084;2023-02-23T08:21:39;28.50;;;21.40;;
37559;SDS011;23398;50.928;7.084;2023-02-23T08:24:07;28.17;;;21.65;;
37559;SDS011;23398;50.928;7.084;2023-02-23T08:26:36;30.95;;;22.08;;
37559;SDS011;23398;50.928;7.084;2023-02-23T08:29:04;28.08;;;21.63;;
37559;SDS011;23398;50.928;7.084;2023-02-23T08:31:30;28.10;;;21.40;;
37559;SDS011;23398;50.928;7.084;2023-02-23T08:33:56;27.35;;;21.55;;
37559;SDS011;23398;50.928;7.084;2023-02-23T08:36:22;26.90;;;20.67;;
37559;SDS011;23398;50.928;7.084;2023-02-23T08:38:48;25.83;;;19.40;;
37559;SDS011;23398;50.928;7.084;2023-02-23T08:41:14;23.48;;;17.92;;
37559;SDS011;23398;50.928;7.084;2023-02-23T08:43:40;24.08;;;18.73;;
37559;SDS011;23398;50.928;7.084;2023-02-23T08:46:06;24.35;;;17.98;;
37559;SDS011;23398;50.928;7.084;2023-02-23T08:48:32;24.23;;;18.02;;
37559;SDS011;23398;50.928;7.084;2023-02-23T08:50:59;22.88;;;17.77;;
37559;SDS011;23398;50.928;7.084;2023-02-23T08:53:25;20.83;;;16.52;;
37559;SDS011;23398;50.928;7.084;2023-02-23T08:56:00;20.63;;;16.92;;
37559;SDS011;23398;50.928;7.084;2023-02-23T08:58:30;21.20;;;17.48;;
37559;SDS011;23398;50.928;7.084;2023-02-23T09:00:56;20.92;;;16.98;;
37559;SDS011;23398;50.928;7.084;2023-02-23T09:03:22;22.02;;;17.20;;
37559;SDS011;23398;50.928;7.084;2023-02-23T09:05:49;20.55;;;16.65;;
37559;SDS011;23398;50.928;7.084;2023-02-23T09:08:15;19.83;;;16.30;;
37559;SDS011;23398;50.928;7.084;2023-02-23T09:10:41;21.75;;;17.98;;
37559;SDS011;23398;50.928;7.084;2023-02-23T09:13:10;22.52;;;18.02;;
37559;SDS011;23398;50.928;7.084;2023-02-23T09:15:39;24.30;;;18.70;;
37559;SDS011;23398;50.928;7.084;2023-02-23T09:18:06;23.63;;;18.67;;
37559;SDS011;23398;50.928;7.084;2023-02-23T09:20:34;23.38;;;18.30;;
37559;SDS011;23398;50.928;7.084;2023-02-23T09:22:59;23.15;;;17.77;;
37559;SDS011;23398;50.928;7.084;2023-02-23T09:25:25;24.77;;;18.48;;
37559;SDS011;23398;50.928;7.084;2023-02-23T09:27:54;24.15;;;18.20;;
37559;SDS011;23398;50.928;7.084;2023-02-23T09:30:21;22.10;;;17.48;;
37559;SDS011;23398;50.928;7.084;2023-02-23T09:32:47;23.73;;;17.52;;
37559;SDS011;23398;50.928;7.084;2023-02-23T09:35:14;24.23;;;17.63;;
37559;SDS011;23398;50.928;7.084;2023-02-23T09:37:48;21.05;;;16.05;;
37559;SDS011;23398;50.928;7.084;2023-02-23T09:40:17;19.00;;;14.93;;
37559;SDS011;23398;50.928;7.084;2023-02-23T09:42:51;20.00;;;15.25;;
37559;SDS011;23398;50.928;7.084;2023-02-23T09:45:28;18.92;;;14.77;;
37559;SDS011;23398;50.928;7.084;2023-02-23T09:48:12;17.88;;;14.45;;
37559;SDS011;23398;50.928;7.084;2023-02-23T09:50:52;19.20;;;14.10;;
37559;SDS011;23398;50.928;7.084;2023-02-23T09:53:30;19.85;;;14.25;;
37559;SDS011;23398;50.928;7.084;2023-02-23T09:56:12;17.92;;;13.60;;
37559;SDS011;23398;50.928;7.084;2023-02-23T09:58:47;18.20;;;14.43;;
37559;SDS011;23398;50.928;7.084;2023-02-23T10:01:21;19.13;;;14.40;;
37559;SDS011;23398;50.928;7.084;2023-02-23T10:04:06;17.25;;;14.27;;
37559;SDS011;23398;50.928;7.084;2023-02-23T10:07:18;18.27;;;13.52;;
37559;SDS011;23398;50.928;7.084;2023-02-23T10:10:05;15.23;;;12.55;;
37559;SDS011;23398;50.928;7.084;2023-02-23T10:15:23;14.25;;;12.52;;
37559;SDS011;23398;50.928;7.084;2023-02-23T10:17:59;15.60;;;12.77;;
37559;SDS011;23398;50.928;7.084;2023-02-23T10:23:29;14.43;;;12.23;;
37559;SDS011;23398;50.928;7.084;2023-02-23T10:26:04;16.45;;;13.20;;
37559;SDS011;23398;50.928;7.084;2023-02-23T10:28:37;15.75;;;13.05;;
37559;SDS011;23398;50.928;7.084;2023-02-23T10:31:06;16.58;;;13.57;;
37559;SDS011;23398;50.928;7.084;2023-02-23T10:33:42;16.27;;;12.70;;
37559;SDS011;23398;50.928;7.084;2023-02-23T10:36:12;16.00;;;13.50;;
37559;SDS011;23398;50.928;7.084;2023-02-23T10:38:43;15.27;;;12.52;;
37559;SDS011;23398;50.928;7.084;2023-02-23T10:41:09;14.77;;;12.57;;
37559;SDS011;23398;50.928;7.084;2023-02-23T10:43:36;15.50;;;13.25;;
37559;SDS011;23398;50.928;7.084;2023-02-23T10:46:01;15.93;;;12.98;;
37559;SDS011;23398;50.928;7.084;2023-02-23T10:48:31;16.92;;;14.05;;
37559;SDS011;23398;50.928;7.084;2023-02-23T10:51:06;15.23;;;12.38;;
37559;SDS011;23398;50.928;7.084;2023-02-23T10:53:42;13.90;;;12.32;;
37559;SDS011;23398;50.928;7.084;2023-02-23T10:56:09;18.70;;;13.52;;
37559;SDS011;23398;50.928;7.084;2023-02-23T10:58:40;14.80;;;13.23;;
37559;SDS011;23398;50.928;7.084;2023-02-23T11:01:07;16.33;;;12.82;;
37559;SDS011;23398;50.928;7.084;2023-02-23T11:03:38;17.10;;;13.35;;
37559;SDS011;23398;50.928;7.084;2023-02-23T11:09:17;15.77;;;12.68;;
37559;SDS011;23398;50.928;7.084;2023-02-23T11:14:47;13.45;;;11.82;;
37559;SDS011;23398;50.928;7.084;2023-02-23T11:17:34;15.70;;;12.90;;
37559;SDS011;23398;50.928;7.084;2023-02-23T11:20:09;16.35;;;12.25;;
37559;SDS011;23398;50.928;7.084;2023-02-23T11:23:00;14.93;;;11.48;;
37559;SDS011;23398;50.928;7.084;2023-02-23T11:25:44;14.82;;;12.65;;
37559;SDS011;23398;50.928;7.084;2023-02-23T11:28:17;15.90;;;12.50;;
37559;SDS011;23398;50.928;7.084;2023-02-23T11:30:46;15.57;;;13.05;;
37559;SDS011;23398;50.928;7.084;2023-02-23T11:33:16;15.77;;;12.82;;
37559;SDS011;23398;50.928;7.084;2023-02-23T11:35:58;17.63;;;12.98;;
37559;SDS011;23398;50.928;7.084;2023-02-23T11:38:44;18.02;;;13.88;;
37559;SDS011;23398;50.928;7.084;2023-02-23T11:41:21;17.83;;;14.48;;
37559;SDS011;23398;50.928;7.084;2023-02-23T11:43:48;17.13;;;13.60;;
37559;SDS011;23398;50.928;7.084;2023-02-23T11:46:15;17.80;;;13.75;;
37559;SDS011;23398;50.928;7.084;2023-02-23T11:48:47;17.38;;;13.55;;
37559;SDS011;23398;50.928;7.084;2023-02-23T11:51:28;17.25;;;13.77;;
37559;SDS011;23398;50.928;7.084;2023-02-23T11:53:57;16.52;;;13.82;;
37559;SDS011;23398;50.928;7.084;2023-02-23T11:56:23;17.30;;;14.05;;
37559;SDS011;23398;50.928;7.084;2023-02-23T11:58:56;18.05;;;14.02;;
37559;SDS011;23398;50.928;7.084;2023-02-23T12:01:33;18.58;;;14.15;;
37559;SDS011;23398;50.928;7.084;2023-02-23T12:04:05;15.98;;;12.77;;
37559;SDS011;23398;50.928;7.084;2023-02-23T12:06:37;16.35;;;12.80;;
37559;SDS011;23398;50.928;7.084;2023-02-23T12:09:19;16.15;;;13.15;;
37559;SDS011;23398;50.928;7.084;2023-02-23T12:11:52;15.73;;;13.10;;
37559;SDS011;23398;50.928;7.084;2023-02-23T12:14:31;17.73;;;13.57;;
37559;SDS011;23398;50.928;7.084;2023-02-23T12:17:05;18.63;;;13.88;;
37559;SDS011;23398;50.928;7.084;2023-02-23T12:19:39;18.10;;;13.57;;
37559;SDS011;23398;50.928;7.084;2023-02-23T12:22:21;20.60;;;14.90;;
37559;SDS011;23398;50.928;7.084;2023-02-23T12:25:10;19.52;;;14.48;;
37559;SDS011;23398;50.928;7.084;2023-02-23T12:28:03;18.83;;;14.65;;
37559;SDS011;23398;50.928;7.084;2023-02-23T12:30:42;22.35;;;16.02;;
37559;SDS011;23398;50.928;7.084;2023-02-23T12:33:24;22.45;;;15.85;;
37559;SDS011;23398;50.928;7.084;2023-02-23T12:36:02;22.67;;;15.85;;
37559;SDS011;23398;50.928;7.084;2023-02-23T12:38:51;22.20;;;15.85;;
37559;SDS011;23398;50.928;7.084;2023-02-23T12:41:37;22.83;;;16.38;;
37559;SDS011;23398;50.928;7.084;2023-02-23T12:50:01;25.20;;;17.40;;
37559;SDS011;23398;50.928;7.084;2023-02-23T12:52:44;25.05;;;17.02;;
37559;SDS011;23398;50.928;7.084;2023-02-23T12:55:20;25.52;;;16.67;;
37559;SDS011;23398;50.928;7.084;2023-02-23T12:58:06;27.77;;;18.02;;
37559;SDS011;23398;50.928;7.084;2023-02-23T13:03:51;28.50;;;17.75;;
37559;SDS011;23398;50.928;7.084;2023-02-23T13:06:37;26.08;;;17.35;;
37559;SDS011;23398;50.928;7.084;2023-02-23T13:14:55;26.00;;;17.42;;
37559;SDS011;23398;50.928;7.084;2023-02-23T13:17:31;26.65;;;16.50;;
37559;SDS011;23398;50.928;7.084;2023-02-23T13:20:15;28.30;;;17.48;;
37559;SDS011;23398;50.928;7.084;2023-02-23T13:25:42;24.25;;;15.90;;
37559;SDS011;23398;50.928;7.084;2023-02-23T13:31:22;24.73;;;15.95;;
37559;SDS011;23398;50.928;7.084;2023-02-23T13:33:55;25.25;;;16.42;;
37559;SDS011;23398;50.928;7.084;2023-02-23T13:36:22;25.42;;;16.27;;
37559;SDS011;23398;50.928;7.084;2023-02-23T13:44:46;27.10;;;16.50;;
37559;SDS011;23398;50.928;7.084;2023-02-23T13:50:11;26.55;;;17.13;;
37559;SDS011;23398;50.928;7.084;2023-02-23T13:53:00;26.67;;;16.80;;
37559;SDS011;23398;50.928;7.084;2023-02-23T13:58:05;28.58;;;17.92;;
37559;SDS011;23398;50.928;7.084;2023-02-23T14:00:52;24.60;;;15.85;;
37559;SDS011;23398;50.928;7.084;2023-02-23T14:03:27;27.73;;;17.52;;
37559;SDS011;23398;50.928;7.084;2023-02-23T14:05:55;27.52;;;17.10;;
37559;SDS011;23398;50.928;7.084;2023-02-23T14:08:29;26.42;;;17.10;;
37559;SDS011;23398;50.928;7.084;2023-02-23T14:10:59;28.83;;;17.40;;
37559;SDS011;23398;50.928;7.084;2023-02-23T14:16:08;28.73;;;17.48;;
37559;SDS011;23398;50.928;7.084;2023-02-23T14:19:29;27.50;;;16.77;;
37559;SDS011;23398;50.928;7.084;2023-02-23T14:21:58;22.85;;;13.48;;
37559;SDS011;23398;50.928;7.084;2023-02-23T14:24:28;24.45;;;13.88;;
37559;SDS011;23398;50.928;7.084;2023-02-23T14:29:30;24.35;;;15.15;;
37559;SDS011;23398;50.928;7.084;2023-02-23T14:37:24;21.95;;;12.90;;
37559;SDS011;23398;50.928;7.084;2023-02-23T14:39:50;22.20;;;13.15;;
37559;SDS011;23398;50.928;7.084;2023-02-23T14:42:20;22.35;;;13.70;;
37559;SDS011;23398;50.928;7.084;2023-02-23T14:44:48;21.40;;;13.93;;
37559;SDS011;23398;50.928;7.084;2023-02-23T14:47:17;20.95;;;13.27;;
37559;SDS011;23398;50.928;7.084;2023-02-23T14:52:16;18.50;;;12.18;;
37559;SDS011;23398;50.928;7.084;2023-02-23T14:54:52;20.60;;;13.23;;
37559;SDS011;23398;50.928;7.084;2023-02-23T14:57:35;20.73;;;13.48;;
37559;SDS011;23398;50.928;7.084;2023-02-23T15:00:06;20.00;;;13.20;;
37559;SDS011;23398;50.928;7.084;2023-02-23T15:02:39;19.63;;;13.63;;
37559;SDS011;23398;50.928;7.084;2023-02-23T15:05:16;19.05;;;12.55;;
37559;SDS011;23398;50.928;7.084;2023-02-23T15:07:42;20.65;;;13.52;;
37559;SDS011;23398;50.928;7.084;2023-02-23T15:10:11;18.83;;;12.68;;
37559;SDS011;23398;50.928;7.084;2023-02-23T15:12:49;19.67;;;13.13;;
37559;SDS011;23398;50.928;7.084;2023-02-23T15:15:17;18.58;;;13.25;;
37559;SDS011;23398;50.928;7.084;2023-02-23T15:17:47;18.30;;;12.38;;
37559;SDS011;23398;50.928;7.084;2023-02-23T15:20:15;19.33;;;12.52;;
37559;SDS011;23398;50.928;7.084;2023-02-23T15:22:45;18.73;;;12.57;;
37559;SDS011;23398;50.928;7.084;2023-02-23T15:25:20;18.33;;;13.32;;
37559;SDS011;23398;50.928;7.084;2023-02-23T15:27:48;18.80;;;12.88;;
37559;SDS011;23398;50.928;7.084;2023-02-23T15:33:05;18.55;;;12.82;;
37559;SDS011;23398;50.928;7.084;2023-02-23T15:35:39;18.48;;;12.60;;
37559;SDS011;23398;50.928;7.084;2023-02-23T15:38:19;17.75;;;12.57;;
37559;SDS011;23398;50.928;7.084;2023-02-23T15:40:58;18.08;;;12.45;;
37559;SDS011;23398;50.928;7.084;2023-02-23T15:43:26;17.88;;;12.48;;
37559;SDS011;23398;50.928;7.084;2023-02-23T15:45:54;20.55;;;13.45;;
37559;SDS011;23398;50.928;7.084;2023-02-23T15:48:22;17.15;;;12.75;;
37559;SDS011;23398;50.928;7.084;2023-02-23T15:50:52;18.63;;;12.80;;
37559;SDS011;23398;50.928;7.084;2023-02-23T15:55:55;18.00;;;12.80;;
37559;SDS011;23398;50.928;7.084;2023-02-23T15:58:25;15.93;;;11.70;;
37559;SDS011;23398;50.928;7.084;2023-02-23T16:00:55;17.67;;;12.23;;
37559;SDS011;23398;50.928;7.084;2023-02-23T16:03:31;15.10;;;11.50;;
37559;SDS011;23398;50.928;7.084;2023-02-23T16:06:00;15.65;;;11.15;;
37559;SDS011;23398;50.928;7.084;2023-02-23T16:08:29;15.57;;;11.27;;
37559;SDS011;23398;50.928;7.084;2023-02-23T16:11:16;16.10;;;11.15;;
37559;SDS011;23398;50.928;7.084;2023-02-23T16:13:43;15.52;;;10.95;;
37559;SDS011;23398;50.928;7.084;2023-02-23T16:16:10;14.68;;;10.57;;
37559;SDS011;23398;50.928;7.084;2023-02-23T16:18:44;16.40;;;11.95;;
37559;SDS011;23398;50.928;7.084;2023-02-23T16:21:16;15.93;;;11.23;;
37559;SDS011;23398;50.928;7.084;2023-02-23T16:23:46;15.55;;;11.50;;
37559;SDS011;23398;50.928;7.084;2023-02-23T16:26:19;16.50;;;11.70;;
37559;SDS011;23398;50.928;7.084;2023-02-23T16:28:50;15.68;;;11.10;;
37559;SDS011;23398;50.928;7.084;2023-02-23T16:31:25;16.17;;;11.52;;
37559;SDS011;23398;50.928;7.084;2023-02-23T16:34:18;16.15;;;11.30;;
37559;SDS011;23398;50.928;7.084;2023-02-23T16:37:14;15.93;;;10.63;;
37559;SDS011;23398;50.928;7.084;2023-02-23T16:39:49;17.52;;;12.40;;